Time;durP1;ratioP1;P1;durP2;ratioP2;P2;SDS_P1;SDS_P2;PMS_P1;PMS_P2;Temp;Humidity;BMP_temperature;BMP_pressure;BME280_temperature;BME280_humidity;BME280_pressure;Samples;Min_cycle;Max_cycle;Signal;HPM_P1;HPM_P2
2023/06/04 00:02:12;;;;;;;3.03;1.90;;;15.10;99.90;;;;;;5095227;28;20024;-84
2023/06/04 00:04:37;;;;;;;5.15;1.90;;;14.80;99.90;;;;;;5095189;28;20126;-84
2023/06/04 00:07:03;;;;;;;4.63;1.58;;;14.80;99.90;;;;;;5094408;28;20043;-84
2023/06/04 00:09:29;;;;;;;2.15;1.90;;;14.80;99.90;;;;;;5095190;28;20467;-84
2023/06/04 00:11:55;;;;;;;2.20;1.70;;;15.00;99.90;;;;;;5094927;28;20071;-84
2023/06/04 00:14:20;;;;;;;4.15;1.85;;;14.70;99.90;;;;;;5094518;28;20039;-84
2023/06/04 00:16:46;;;;;;;4.60;1.98;;;14.70;99.90;;;;;;5095534;28;20475;-84
2023/06/04 00:19:12;;;;;;;4.15;1.90;;;14.70;99.90;;;;;;5095223;28;20020;-84
2023/06/04 00:21:37;;;;;;;3.10;2.08;;;13.90;99.90;;;;;;5094522;28;20024;-84
2023/06/04 00:24:03;;;;;;;3.30;1.85;;;14.70;99.90;;;;;;5110944;28;20360;-84
2023/06/04 00:26:28;;;;;;;2.75;1.85;;;14.70;99.90;;;;;;5094846;28;20481;-84
2023/06/04 00:28:55;;;;;;;3.78;2.00;;;14.60;99.90;;;;;;5094345;28;20031;-84
2023/06/04 00:31:21;;;;;;;2.88;2.00;;;14.60;99.90;;;;;;5095021;28;20116;-84
2023/06/04 00:33:50;;;;;;;4.35;1.85;;;14.50;99.90;;;;;;5095258;28;20078;-84
2023/06/04 00:36:16;;;;;;;2.33;2.00;;;14.50;99.90;;;;;;5093974;28;20065;-84
2023/06/04 00:38:41;;;;;;;2.90;1.90;;;15.60;99.90;;;;;;5094664;28;20028;-84
2023/06/04 00:41:07;;;;;;;6.05;1.92;;;14.40;99.90;;;;;;5094861;28;20058;-84
2023/06/04 00:43:33;;;;;;;2.67;1.88;;;14.40;99.90;;;;;;5093899;28;20028;-84
2023/06/04 00:45:59;;;;;;;2.25;2.05;;;14.30;99.90;;;;;;5094598;28;20032;-84
2023/06/04 00:48:27;;;;;;;2.10;1.58;;;14.30;99.90;;;;;;5094579;28;20028;-84
2023/06/04 00:50:54;;;;;;;5.82;2.10;;;14.30;99.90;;;;;;5094182;28;20031;-84
2023/06/04 00:53:25;;;;;;;2.50;1.95;;;14.20;99.90;;;;;;5094541;28;20030;-84
2023/06/04 00:55:55;;;;;;;4.10;2.05;;;14.30;99.90;;;;;;5088128;28;20036;-84
2023/06/04 00:58:21;;;;;;;3.17;1.83;;;14.50;99.90;;;;;;5094632;28;20036;-84
2023/06/04 01:00:47;;;;;;;2.47;1.80;;;14.10;99.90;;;;;;5094393;28;20031;-85
2023/06/04 01:03:18;;;;;;;4.78;2.08;;;14.10;99.90;;;;;;5093597;28;20028;-85
2023/06/04 01:05:59;;;;;;;6.78;2.00;;;14.00;99.90;;;;;;5094304;28;20101;-83
2023/06/04 01:08:26;;;;;;;3.65;1.90;;;14.00;99.90;;;;;;5094051;28;20035;-85
2023/06/04 01:10:55;;;;;;;2.40;2.20;;;13.30;99.90;;;;;;5093823;28;20028;-85
2023/06/04 01:13:21;;;;;;;6.43;2.03;;;14.00;99.90;;;;;;5109914;28;20036;-82
2023/06/04 01:15:47;;;;;;;3.55;2.38;;;14.00;99.90;;;;;;5119358;28;20047;-84
2023/06/04 01:18:27;;;;;;;2.60;1.77;;;14.00;99.90;;;;;;5102053;28;20149;-85
2023/06/04 01:21:01;;;;;;;2.28;1.90;;;14.00;99.90;;;;;;5093912;28;20464;-83
2023/06/04 01:23:36;;;;;;;6.07;1.98;;;14.00;99.90;;;;;;5093832;28;20035;-83
2023/06/04 01:26:03;;;;;;;2.75;1.98;;;14.10;99.90;;;;;;5093107;28;20040;-85
2023/06/04 01:28:30;;;;;;;4.63;2.30;;;14.10;99.90;;;;;;5075256;28;20047;-84
2023/06/04 01:30:57;;;;;;;6.13;2.75;;;14.10;99.90;;;;;;5093048;28;20047;-84
2023/06/04 01:33:23;;;;;;;8.73;2.30;;;14.40;99.90;;;;;;5093878;28;20024;-85
2023/06/04 01:35:49;;;;;;;6.32;2.40;;;14.20;99.90;;;;;;5093970;28;20785;-84
2023/06/04 01:38:15;;;;;;;6.05;2.22;;;13.40;99.90;;;;;;5093212;28;20020;-84
2023/06/04 01:40:41;;;;;;;4.47;2.58;;;14.20;99.90;;;;;;5093741;28;20129;-84
2023/06/04 01:43:07;;;;;;;3.97;2.75;;;13.70;99.90;;;;;;5093530;28;20020;-84
2023/06/04 01:45:33;;;;;;;3.47;2.35;;;14.20;99.90;;;;;;5092618;28;20161;-84
2023/06/04 01:48:01;;;;;;;7.47;2.97;;;14.20;99.90;;;;;;5093105;28;20394;-84
2023/06/04 01:50:27;;;;;;;9.30;3.05;;;13.90;99.90;;;;;;5093191;28;20036;-84
2023/06/04 01:52:53;;;;;;;6.97;2.60;;;14.10;99.90;;;;;;5093074;28;20024;-84
2023/06/04 01:55:19;;;;;;;3.50;2.17;;;14.00;99.90;;;;;;5093311;28;20055;-84
2023/06/04 01:57:45;;;;;;;3.05;2.33;;;14.00;99.90;;;;;;5093664;28;20392;-84
2023/06/04 02:00:12;;;;;;;3.03;2.00;;;13.90;99.90;;;;;;5092794;28;20103;-86
2023/06/04 02:02:41;;;;;;;5.43;2.47;;;13.90;99.90;;;;;;5092819;28;20422;-83
2023/06/04 02:05:07;;;;;;;2.63;2.15;;;13.80;99.90;;;;;;5093367;28;20028;-84
2023/06/04 02:07:41;;;;;;;2.63;2.30;;;13.70;99.90;;;;;;5092445;28;20031;-85
2023/06/04 02:10:08;;;;;;;5.18;2.08;;;13.20;99.90;;;;;;5093365;28;20080;-85
2023/06/04 02:12:35;;;;;;;4.57;2.03;;;13.60;99.90;;;;;;5093112;28;20494;-85
2023/06/04 02:15:01;;;;;;;4.70;2.10;;;13.60;99.90;;;;;;5084252;28;20525;-85
2023/06/04 02:17:31;;;;;;;3.35;2.00;;;13.50;99.90;;;;;;5093084;28;20020;-84
2023/06/04 02:19:57;;;;;;;2.40;2.20;;;13.50;99.90;;;;;;5093391;28;20077;-84
2023/06/04 02:22:23;;;;;;;2.45;2.03;;;13.40;99.90;;;;;;5092524;28;20016;-84
2023/06/04 02:24:49;;;;;;;4.25;2.60;;;13.40;99.90;;;;;;5092981;28;20024;-84
2023/06/04 02:27:15;;;;;;;5.82;3.42;;;13.30;99.90;;;;;;5092364;28;20043;-84
2023/06/04 02:29:41;;;;;;;2.72;2.53;;;13.30;99.90;;;;;;5092911;28;20024;-84
2023/06/04 02:32:07;;;;;;;3.40;2.35;;;14.40;99.90;;;;;;5093267;28;20024;-84
2023/06/04 02:34:35;;;;;;;3.03;2.15;;;13.20;99.90;;;;;;5092451;28;20484;-84
2023/06/04 02:37:01;;;;;;;3.00;2.05;;;12.60;99.90;;;;;;5092900;28;20024;-83
2023/06/04 02:39:27;;;;;;;3.08;2.17;;;12.60;99.90;;;;;;5092633;28;20543;-84
2023/06/04 02:41:53;;;;;;;2.67;2.17;;;14.10;99.90;;;;;;5092300;28;20115;-84
2023/06/04 02:44:18;;;;;;;4.15;2.50;;;12.50;99.90;;;;;;5092883;28;20020;-84
2023/06/04 02:46:44;;;;;;;3.22;1.85;;;12.80;99.90;;;;;;5093224;28;20059;-84
2023/06/04 02:49:13;;;;;;;6.05;2.38;;;12.90;99.90;;;;;;5092084;28;20103;-84
2023/06/04 02:51:45;;;;;;;3.22;2.38;;;12.40;99.90;;;;;;5093083;28;20036;-84
2023/06/04 02:54:11;;;;;;;2.25;1.92;;;13.10;99.90;;;;;;5092787;28;20127;-84
2023/06/04 02:56:37;;;;;;;2.60;1.83;;;13.00;99.90;;;;;;5093948;28;20111;-84
2023/06/04 02:59:03;;;;;;;2.03;1.80;;;13.00;99.90;;;;;;5113599;28;20037;-84
2023/06/04 03:01:29;;;;;;;3.65;1.98;;;13.00;99.90;;;;;;5120657;28;20012;-83
2023/06/04 03:03:56;;;;;;;4.35;1.83;;;12.60;99.90;;;;;;5103102;28;20471;-84
2023/06/04 03:06:22;;;;;;;2.85;2.63;;;12.90;99.90;;;;;;5096621;28;20040;-84
2023/06/04 03:08:50;;;;;;;5.00;2.00;;;12.80;99.90;;;;;;5096645;28;20020;-84
2023/06/04 03:11:16;;;;;;;2.40;1.85;;;13.00;99.90;;;;;;5095733;28;20024;-84
2023/06/04 03:13:41;;;;;;;2.28;1.92;;;12.50;99.90;;;;;;5096264;28;20069;-84
2023/06/04 03:16:09;;;;;;;6.03;2.47;;;12.50;99.90;;;;;;5096614;28;20035;-84
2023/06/04 03:18:36;;;;;;;4.05;2.10;;;12.70;99.90;;;;;;5095685;28;20024;-84
2023/06/04 03:21:02;;;;;;;1.98;1.77;;;13.40;99.90;;;;;;5096216;28;20039;-84
2023/06/04 03:23:27;;;;;;;3.45;2.08;;;12.80;99.90;;;;;;5095817;28;20114;-84
2023/06/04 03:25:53;;;;;;;2.92;2.00;;;12.80;99.90;;;;;;5095772;28;20027;-84
2023/06/04 03:28:18;;;;;;;4.03;1.88;;;12.80;99.90;;;;;;5096341;28;20107;-84
2023/06/04 03:30:44;;;;;;;1.92;1.77;;;12.30;99.90;;;;;;5095592;28;20112;-84
2023/06/04 03:33:09;;;;;;;2.80;1.90;;;12.90;99.90;;;;;;5095853;28;20364;-84
2023/06/04 03:35:35;;;;;;;2.13;1.40;;;12.80;99.90;;;;;;5096298;28;20024;-84
2023/06/04 03:38:00;;;;;;;2.80;2.00;;;12.50;99.90;;;;;;5095197;28;20494;-83
2023/06/04 03:40:26;;;;;;;5.07;2.15;;;12.80;99.90;;;;;;5095578;28;20016;-84
2023/06/04 03:42:51;;;;;;;4.85;2.08;;;12.70;99.90;;;;;;5095870;28;20027;-84
2023/06/04 03:45:32;;;;;;;2.25;1.73;;;12.70;99.90;;;;;;5094966;28;20031;-84
2023/06/04 03:47:58;;;;;;;2.58;1.90;;;12.70;99.90;;;;;;5095876;28;20123;-84
2023/06/04 03:50:23;;;;;;;4.53;2.10;;;13.60;99.90;;;;;;5095603;28;20051;-84
2023/06/04 03:52:50;;;;;;;2.65;1.90;;;12.50;99.90;;;;;;5094949;28;20475;-84
2023/06/04 03:55:16;;;;;;;4.97;1.85;;;12.60;99.90;;;;;;5095203;28;20047;-84
2023/06/04 03:57:42;;;;;;;2.90;1.63;;;12.70;99.90;;;;;;5077296;28;20116;-84
2023/06/04 04:00:12;;;;;;;3.63;1.77;;;12.60;99.90;;;;;;5095090;28;20030;-84
2023/06/04 04:02:37;;;;;;;2.55;1.70;;;12.60;99.90;;;;;;5095273;28;20050;-84
2023/06/04 04:05:03;;;;;;;2.90;1.67;;;12.60;99.90;;;;;;5095484;28;20023;-84
2023/06/04 04:07:29;;;;;;;3.25;2.38;;;12.60;99.90;;;;;;5094466;28;20040;-84
2023/06/04 04:09:54;;;;;;;5.35;2.20;;;12.60;99.90;;;;;;5095273;28;20099;-84
2023/06/04 04:12:20;;;;;;;2.80;1.77;;;12.60;99.90;;;;;;5094276;28;20039;-84
2023/06/04 04:14:47;;;;;;;4.47;2.00;;;12.60;99.90;;;;;;5095214;28;20020;-84
2023/06/04 04:17:15;;;;;;;4.55;2.15;;;12.20;99.90;;;;;;5095453;28;20032;-84
2023/06/04 04:19:41;;;;;;;2.95;2.00;;;12.70;99.90;;;;;;5095191;28;20020;-85
2023/06/04 04:22:08;;;;;;;2.85;1.95;;;12.60;99.90;;;;;;5094656;28;20373;-84
2023/06/04 04:24:35;;;;;;;2.90;2.08;;;12.60;99.90;;;;;;5095478;28;20025;-85
2023/06/04 04:27:03;;;;;;;7.13;1.92;;;12.60;99.90;;;;;;5094737;28;20036;-85
2023/06/04 04:29:32;;;;;;;4.28;1.70;;;12.10;99.90;;;;;;5095145;28;20024;-84
2023/06/04 04:32:00;;;;;;;4.68;2.58;;;12.70;99.90;;;;;;5094949;28;20118;-85
2023/06/04 04:34:27;;;;;;;3.92;2.13;;;13.70;99.90;;;;;;5094117;28;20486;-85
2023/06/04 04:36:53;;;;;;;3.50;2.00;;;12.00;99.90;;;;;;5094476;28;20031;-84
2023/06/04 04:39:24;;;;;;;3.60;1.92;;;12.70;99.90;;;;;;5094923;28;20384;-85
2023/06/04 04:41:49;;;;;;;2.72;1.83;;;12.10;99.90;;;;;;5094773;28;20376;-85
2023/06/04 04:44:15;;;;;;;2.30;1.70;;;12.80;99.90;;;;;;5108508;28;20020;-85
2023/06/04 04:46:41;;;;;;;3.50;2.22;;;12.80;99.90;;;;;;5119304;28;20036;-84
2023/06/04 04:49:06;;;;;;;2.40;1.77;;;12.60;99.90;;;;;;5108068;28;20024;-85
2023/06/04 04:51:32;;;;;;;2.42;1.77;;;12.80;99.90;;;;;;5094344;28;20491;-85
2023/06/04 04:54:00;;;;;;;2.30;1.88;;;12.20;99.90;;;;;;5094018;28;20491;-85
2023/06/04 04:56:26;;;;;;;2.85;1.80;;;12.90;99.90;;;;;;5094185;28;20024;-84
2023/06/04 04:58:54;;;;;;;4.80;1.77;;;12.10;99.90;;;;;;5094308;28;20371;-85
2023/06/04 05:01:20;;;;;;;2.88;1.70;;;12.90;99.90;;;;;;5094284;28;20032;-85
2023/06/04 05:03:45;;;;;;;2.20;1.42;;;12.90;99.90;;;;;;5093540;28;20024;-85
2023/06/04 05:06:11;;;;;;;4.43;2.03;;;12.90;99.90;;;;;;5093761;28;20535;-85
2023/06/04 05:08:37;;;;;;;7.10;1.98;;;12.90;99.90;;;;;;5094515;28;20376;-84
2023/06/04 05:11:02;;;;;;;2.55;1.73;;;13.00;99.90;;;;;;5093328;28;20077;-85
2023/06/04 05:13:28;;;;;;;3.35;2.22;;;13.20;99.90;;;;;;5094128;28;20039;-85
2023/06/04 05:15:54;;;;;;;2.88;2.10;;;12.40;99.90;;;;;;5094001;28;20024;-85
2023/06/04 05:18:28;;;;;;;5.03;2.40;;;13.50;99.90;;;;;;5093213;28;20031;-85
2023/06/04 05:20:59;;;;;;;3.03;2.00;;;14.40;99.90;;;;;;5094267;28;20026;-85
2023/06/04 05:23:26;;;;;;;2.72;1.80;;;12.80;99.90;;;;;;5093284;28;20380;-85
2023/06/04 05:25:52;;;;;;;2.70;2.00;;;13.20;99.90;;;;;;5094029;28;20024;-85
2023/06/04 05:28:18;;;;;;;2.97;1.70;;;13.20;99.90;;;;;;5093708;28;20078;-85
2023/06/04 05:30:44;;;;;;;4.07;2.58;;;12.70;99.90;;;;;;5093394;28;20447;-85
2023/06/04 05:33:17;;;;;;;4.80;1.73;;;13.40;99.90;;;;;;5093564;28;20035;-85
2023/06/04 05:35:45;;;;;;;4.82;2.30;;;12.70;99.90;;;;;;5094006;28;20024;-85
2023/06/04 05:38:18;;;;;;;6.93;2.45;;;13.40;99.90;;;;;;5093165;28;20379;-85
2023/06/04 05:40:44;;;;;;;3.53;1.77;;;13.10;99.90;;;;;;5093907;28;20020;-85
2023/06/04 05:43:10;;;;;;;3.33;1.92;;;13.50;99.90;;;;;;5093851;28;20024;-85
2023/06/04 05:45:35;;;;;;;6.10;2.08;;;13.60;99.90;;;;;;5092843;28;20494;-85
2023/06/04 05:48:01;;;;;;;5.03;2.38;;;13.50;99.90;;;;;;5093722;28;20378;-85
2023/06/04 05:50:27;;;;;;;5.15;1.92;;;13.60;99.90;;;;;;5093787;28;20016;-85
2023/06/04 05:52:53;;;;;;;4.65;2.95;;;13.60;99.90;;;;;;5093483;28;20031;-86
2023/06/04 05:55:19;;;;;;;3.60;2.03;;;13.70;99.90;;;;;;5093278;28;20431;-85
2023/06/04 05:57:45;;;;;;;5.07;2.17;;;15.10;99.90;;;;;;5093293;28;20157;-86
2023/06/04 06:00:11;;;;;;;4.63;2.08;;;14.00;99.90;;;;;;5092571;28;20107;-85
2023/06/04 06:02:40;;;;;;;3.85;2.03;;;14.00;99.90;;;;;;5097905;28;20027;-86
2023/06/04 06:05:08;;;;;;;4.07;1.80;;;14.00;99.90;;;;;;5098662;28;20028;-86
2023/06/04 06:07:33;;;;;;;6.70;2.83;;;14.10;99.90;;;;;;5092749;28;20040;-86
2023/06/04 06:09:59;;;;;;;4.53;2.28;;;13.60;99.90;;;;;;5093276;28;20020;-85
2023/06/04 06:12:25;;;;;;;5.85;2.28;;;14.10;99.90;;;;;;5093098;28;20024;-85
2023/06/04 06:14:50;;;;;;;3.35;2.20;;;14.10;99.90;;;;;;5093408;28;20027;-86
2023/06/04 06:17:16;;;;;;;7.10;2.10;;;14.00;99.90;;;;;;5092811;28;20464;-85
2023/06/04 06:19:42;;;;;;;4.72;2.03;;;13.50;99.90;;;;;;5092273;28;20118;-86
2023/06/04 06:22:07;;;;;;;4.28;2.33;;;14.70;99.90;;;;;;5093322;28;20469;-86
2023/06/04 06:24:33;;;;;;;8.20;2.30;;;14.20;99.90;;;;;;5093419;28;20064;-86
2023/06/04 06:26:58;;;;;;;5.75;2.20;;;14.30;99.90;;;;;;5092238;28;20032;-86
2023/06/04 06:29:25;;;;;;;6.30;2.75;;;13.90;99.90;;;;;;5099741;28;20043;-86
2023/06/04 06:31:50;;;;;;;3.22;2.38;;;14.10;99.90;;;;;;5118391;28;20043;-86
2023/06/04 06:34:16;;;;;;;3.47;2.10;;;14.40;99.90;;;;;;5111316;28;20059;-86
2023/06/04 06:36:42;;;;;;;4.32;2.50;;;14.30;99.90;;;;;;5096846;28;20123;-86
2023/06/04 06:39:08;;;;;;;2.70;2.10;;;14.50;99.90;;;;;;5097146;28;20024;-85
2023/06/04 06:41:34;;;;;;;5.70;2.60;;;14.60;99.90;;;;;;5096352;28;20107;-85
2023/06/04 06:44:00;;;;;;;4.50;2.33;;;14.60;99.90;;;;;;5097462;28;20099;-86
2023/06/04 06:46:26;;;;;;;5.35;2.70;;;14.60;99.90;;;;;;5097528;28;20118;-86
2023/06/04 06:48:51;;;;;;;5.10;2.58;;;14.70;99.90;;;;;;5096553;28;20017;-86
2023/06/04 06:51:17;;;;;;;5.72;2.45;;;14.70;99.90;;;;;;5096933;28;20028;-85
2023/06/04 06:53:43;;;;;;;4.85;2.10;;;14.80;99.90;;;;;;5096649;28;20039;-86
2023/06/04 06:56:08;;;;;;;4.82;2.42;;;14.10;99.90;;;;;;5096384;28;20040;-86
2023/06/04 06:58:34;;;;;;;4.43;2.45;;;14.70;99.90;;;;;;5096626;28;20129;-86
2023/06/04 07:01:00;;;;;;;3.72;2.35;;;15.60;99.90;;;;;;5096689;28;20373;-86
2023/06/04 07:03:26;;;;;;;6.15;2.42;;;15.00;99.90;;;;;;5096317;28;20059;-86
2023/06/04 07:05:52;;;;;;;5.05;2.42;;;14.90;99.90;;;;;;5096879;28;20107;-86
2023/06/04 07:08:17;;;;;;;7.45;2.28;;;15.10;99.90;;;;;;5096647;28;20489;-86
2023/06/04 07:10:43;;;;;;;4.78;2.35;;;15.20;99.90;;;;;;5095909;28;20024;-86
2023/06/04 07:13:08;;;;;;;5.32;2.30;;;16.00;99.90;;;;;;5096385;28;20167;-86
2023/06/04 07:15:34;;;;;;;12.82;2.75;;;14.40;99.90;;;;;;5095819;28;20456;-86
2023/06/04 07:18:00;;;;;;;6.97;2.53;;;14.50;99.90;;;;;;5096518;28;20051;-85
2023/06/04 07:20:25;;;;;;;4.07;2.25;;;15.30;99.90;;;;;;5096091;28;20020;-85
2023/06/04 07:22:51;;;;;;;6.25;2.25;;;15.50;99.90;;;;;;5095301;28;20046;-85
2023/06/04 07:25:16;;;;;;;4.18;2.42;;;14.60;99.90;;;;;;5099706;28;20056;-86
2023/06/04 07:27:42;;;;;;;7.80;2.65;;;15.40;99.90;;;;;;5098371;28;20387;-86
2023/06/04 07:30:09;;;;;;;7.57;2.80;;;15.70;99.90;;;;;;5095493;28;20027;-86
2023/06/04 07:32:34;;;;;;;5.05;2.10;;;15.40;99.90;;;;;;5095869;28;20516;-86
2023/06/04 07:35:01;;;;;;;4.15;2.20;;;15.50;99.90;;;;;;5095970;28;20111;-86
2023/06/04 07:37:26;;;;;;;3.65;2.15;;;15.50;99.90;;;;;;5095598;28;20455;-86
2023/06/04 07:39:52;;;;;;;5.63;2.17;;;15.60;99.90;;;;;;5096262;28;20032;-86
2023/06/04 07:42:18;;;;;;;6.60;2.03;;;15.70;99.90;;;;;;5095521;28;20490;-86
2023/06/04 07:44:44;;;;;;;11.18;2.72;;;15.70;99.90;;;;;;5095236;28;20434;-85
2023/06/04 07:47:10;;;;;;;4.95;2.13;;;15.60;99.90;;;;;;5094165;28;20050;-86
2023/06/04 07:49:36;;;;;;;5.10;2.10;;;15.40;99.90;;;;;;5095874;28;20028;-85
2023/06/04 07:52:01;;;;;;;6.82;1.80;;;15.90;99.90;;;;;;5095149;28;20028;-85
2023/06/04 07:54:27;;;;;;;6.53;2.67;;;15.10;99.90;;;;;;5095242;28;20040;-85
2023/06/04 07:56:55;;;;;;;4.35;2.00;;;15.40;99.90;;;;;;5095703;28;20055;-85
2023/06/04 07:59:22;;;;;;;4.90;1.92;;;16.00;99.90;;;;;;5095031;28;20027;-85
2023/06/04 08:01:49;;;;;;;3.28;1.40;;;17.30;99.90;;;;;;5095754;28;20097;-85
2023/06/04 08:04:15;;;;;;;5.20;1.98;;;16.20;99.90;;;;;;5095610;28;20020;-85
2023/06/04 08:06:41;;;;;;;5.60;1.90;;;16.20;99.90;;;;;;5095055;28;20090;-85
2023/06/04 08:09:09;;;;;;;2.78;1.60;;;16.30;99.90;;;;;;5095796;28;20031;-85
2023/06/04 08:11:35;;;;;;;6.30;1.63;;;17.20;99.90;;;;;;5095415;28;20028;-85
2023/06/04 08:14:01;;;;;;;3.55;1.85;;;16.40;99.90;;;;;;5096063;28;20020;-85
2023/06/04 08:16:26;;;;;;;2.15;1.48;;;17.00;99.90;;;;;;5119428;28;20018;-84
2023/06/04 08:18:52;;;;;;;3.85;1.60;;;16.10;99.90;;;;;;5119708;28;20021;-86
2023/06/04 08:21:28;;;;;;;4.55;1.30;;;17.00;99.90;;;;;;5096763;28;20032;-85
2023/06/04 08:23:55;;;;;;;3.08;1.33;;;16.50;99.90;;;;;;5095098;28;20510;-85
2023/06/04 08:26:21;;;;;;;4.68;1.55;;;16.50;99.90;;;;;;5094965;28;20466;-85
2023/06/04 08:28:50;;;;;;;3.53;1.65;;;16.90;99.90;;;;;;5095163;28;20107;-85
2023/06/04 08:31:16;;;;;;;1.85;1.25;;;16.70;99.90;;;;;;5095679;28;20028;-86
2023/06/04 08:33:42;;;;;;;5.88;1.77;;;16.70;99.60;;;;;;5094709;28;20028;-86
2023/06/04 08:36:08;;;;;;;5.53;1.50;;;17.90;99.90;;;;;;5094684;28;20052;-85
2023/06/04 08:38:34;;;;;;;4.38;1.25;;;17.80;99.70;;;;;;5094602;28;20024;-85
2023/06/04 08:41:15;;;;;;;3.30;1.67;;;17.40;99.70;;;;;;5094381;28;20410;-85
2023/06/04 08:43:43;;;;;;;3.03;1.80;;;17.00;99.70;;;;;;5094774;28;20065;-85
2023/06/04 08:46:09;;;;;;;5.43;2.30;;;17.00;99.60;;;;;;5094627;28;20024;-85
2023/06/04 08:48:37;;;;;;;1.60;1.02;;;16.70;99.60;;;;;;5096067;28;20024;-85
2023/06/04 08:51:09;;;;;;;4.65;1.33;;;17.10;99.70;;;;;;5097266;28;20027;-86
2023/06/04 08:53:36;;;;;;;2.30;1.30;;;18.30;99.90;;;;;;5094580;28;20020;-85
2023/06/04 08:56:02;;;;;;;4.57;1.80;;;17.10;99.60;;;;;;5094051;28;20016;-86
2023/06/04 08:58:32;;;;;;;2.17;1.40;;;16.90;98.90;;;;;;5093994;28;20028;-85
2023/06/04 09:00:58;;;;;;;2.05;1.48;;;17.90;99.00;;;;;;5094697;28;20070;-85
2023/06/04 09:03:26;;;;;;;2.70;1.50;;;17.10;98.40;;;;;;5093725;28;20453;-85
2023/06/04 09:05:53;;;;;;;2.55;1.00;;;18.10;98.20;;;;;;5094911;28;20115;-85
2023/06/04 09:08:21;;;;;;;4.40;1.70;;;17.40;98.00;;;;;;5094063;28;20153;-84
2023/06/04 09:10:51;;;;;;;4.00;1.42;;;17.70;98.00;;;;;;5094356;28;20024;-85
2023/06/04 09:13:18;;;;;;;2.70;1.40;;;17.50;97.70;;;;;;5094575;28;20020;-85
2023/06/04 09:15:44;;;;;;;3.88;1.50;;;18.30;97.90;;;;;;5093589;28;20103;-85
2023/06/04 09:18:09;;;;;;;2.03;1.42;;;17.50;98.10;;;;;;5094667;28;20054;-85
2023/06/04 09:20:35;;;;;;;1.80;1.30;;;17.90;98.00;;;;;;5094460;28;20019;-85
2023/06/04 09:23:01;;;;;;;1.75;0.98;;;18.40;98.10;;;;;;5093545;28;20028;-85
2023/06/04 09:25:27;;;;;;;4.25;2.00;;;17.30;97.60;;;;;;5094230;28;20054;-85
2023/06/04 09:28:05;;;;;;;3.58;1.35;;;17.00;97.50;;;;;;5094157;28;20177;-85
2023/06/04 09:30:31;;;;;;;1.88;0.98;;;17.80;97.10;;;;;;5093035;28;20028;-84
2023/06/04 09:33:09;;;;;;;2.08;1.10;;;18.50;96.90;;;;;;5094108;28;20491;-85
2023/06/04 09:35:35;;;;;;;2.83;1.40;;;18.30;96.90;;;;;;5093950;28;20024;-85
2023/06/04 09:38:00;;;;;;;3.85;1.38;;;17.70;97.20;;;;;;5093317;28;20107;-84
2023/06/04 09:40:36;;;;;;;3.05;1.58;;;17.20;97.10;;;;;;5094128;28;20107;-85
2023/06/04 09:43:02;;;;;;;2.22;1.40;;;18.00;96.50;;;;;;5093798;28;20040;-85
2023/06/04 09:45:29;;;;;;;5.10;1.50;;;18.10;97.10;;;;;;5092823;28;20523;-84
2023/06/04 09:47:55;;;;;;;3.38;1.17;;;18.00;96.30;;;;;;5093418;28;20047;-85
2023/06/04 09:50:26;;;;;;;2.65;1.60;;;19.10;96.60;;;;;;5093192;28;20043;-85
2023/06/04 09:52:53;;;;;;;3.60;1.17;;;18.10;96.60;;;;;;5093714;28;20028;-85
2023/06/04 09:55:20;;;;;;;5.93;1.77;;;17.20;96.20;;;;;;5093366;28;20127;-85
2023/06/04 09:57:52;;;;;;;2.35;1.20;;;18.20;96.10;;;;;;5093266;28;20016;-85
2023/06/04 10:00:23;;;;;;;7.13;1.70;;;18.60;96.80;;;;;;5103775;28;20034;-84
2023/06/04 10:02:51;;;;;;;2.75;1.25;;;18.10;96.40;;;;;;5118638;28;20024;-84
2023/06/04 10:05:21;;;;;;;2.08;1.10;;;19.10;96.70;;;;;;5107210;28;20036;-85
2023/06/04 10:07:48;;;;;;;2.40;1.55;;;18.30;96.30;;;;;;5093760;28;20028;-85
2023/06/04 10:10:17;;;;;;;3.63;1.23;;;18.20;96.10;;;;;;5092543;28;20028;-85
2023/06/04 10:12:45;;;;;;;2.00;1.42;;;18.40;96.00;;;;;;5096673;28;20047;-85
2023/06/04 10:15:12;;;;;;;5.13;1.38;;;18.40;95.80;;;;;;5093344;28;20023;-86
2023/06/04 10:17:39;;;;;;;3.55;2.03;;;19.90;95.90;;;;;;5093759;28;20063;-85
2023/06/04 10:20:08;;;;;;;3.58;1.55;;;18.60;95.60;;;;;;5092738;28;20024;-85
2023/06/04 10:22:37;;;;;;;2.72;1.40;;;18.60;95.30;;;;;;5093101;28;20495;-85
2023/06/04 10:25:04;;;;;;;5.03;2.20;;;18.60;95.30;;;;;;5093694;28;20052;-84
2023/06/04 10:27:35;;;;;;;1.67;1.40;;;18.70;95.50;;;;;;5092692;28;20042;-85
2023/06/04 10:30:02;;;;;;;6.68;1.35;;;18.70;95.30;;;;;;5093338;28;20027;-85
2023/06/04 10:32:29;;;;;;;3.75;1.30;;;18.70;95.50;;;;;;5092779;28;20080;-84
2023/06/04 10:34:57;;;;;;;4.43;1.52;;;18.90;95.30;;;;;;5093155;28;20403;-85
2023/06/04 10:37:26;;;;;;;5.97;1.70;;;18.70;95.20;;;;;;5093397;28;20035;-85
2023/06/04 10:39:54;;;;;;;2.43;1.60;;;18.80;94.90;;;;;;5087787;28;20443;-85
2023/06/04 10:42:21;;;;;;;2.25;1.35;;;18.80;94.80;;;;;;5093180;28;20039;-85
2023/06/04 10:44:54;;;;;;;2.63;1.23;;;20.00;95.40;;;;;;5092823;28;20024;-84
2023/06/04 10:47:26;;;;;;;1.42;1.13;;;19.00;95.00;;;;;;5092149;28;20028;-85
2023/06/04 10:49:53;;;;;;;2.78;1.33;;;18.30;94.50;;;;;;5095073;28;20399;-85
2023/06/04 10:52:20;;;;;;;4.28;1.33;;;19.40;95.20;;;;;;5093135;28;20036;-85
2023/06/04 10:54:48;;;;;;;5.28;1.52;;;19.10;94.70;;;;;;5092190;28;20050;-85
2023/06/04 10:57:16;;;;;;;1.52;1.20;;;19.20;94.60;;;;;;5093222;28;20024;-85
2023/06/04 10:59:53;;;;;;;5.05;1.80;;;19.00;94.40;;;;;;5093053;28;20085;-85
2023/06/04 11:02:19;;;;;;;2.10;1.40;;;19.20;94.50;;;;;;5092197;28;20035;-84
2023/06/04 11:04:44;;;;;;;2.95;1.60;;;19.20;94.10;;;;;;5093054;28;20020;-85
2023/06/04 11:07:10;;;;;;;1.75;1.33;;;19.40;94.70;;;;;;5093062;28;20034;-85
2023/06/04 11:09:36;;;;;;;2.45;1.50;;;19.50;94.70;;;;;;5092760;28;20020;-85
2023/06/04 11:12:05;;;;;;;4.55;1.50;;;19.40;94.30;;;;;;5093200;28;20024;-85
2023/06/04 11:14:31;;;;;;;3.20;1.23;;;19.40;93.90;;;;;;5092886;28;20103;-85
2023/06/04 11:16:56;;;;;;;2.38;1.00;;;18.80;93.40;;;;;;5092325;28;20440;-85
2023/06/04 11:19:22;;;;;;;11.27;1.55;;;19.10;93.20;;;;;;5093036;28;20456;-85
2023/06/04 11:21:49;;;;;;;3.15;1.10;;;19.60;93.20;;;;;;5093935;28;20040;-84
2023/06/04 11:24:16;;;;;;;4.22;1.75;;;19.00;93.30;;;;;;5096453;28;20028;-84
2023/06/04 11:26:42;;;;;;;3.28;1.60;;;18.80;93.30;;;;;;5096328;28;20032;-84
2023/06/04 11:29:11;;;;;;;2.67;1.40;;;20.50;93.80;;;;;;5095516;28;20035;-85
2023/06/04 11:31:49;;;;;;;2.47;1.43;;;20.50;93.60;;;;;;5096188;28;20089;-84
2023/06/04 11:34:28;;;;;;;4.47;1.40;;;19.80;93.80;;;;;;5096729;28;20024;-84
2023/06/04 11:36:54;;;;;;;1.38;1.08;;;19.60;94.30;;;;;;5096622;28;20019;-84
2023/06/04 11:39:21;;;;;;;3.40;1.80;;;19.60;94.20;;;;;;5096325;28;20031;-84
2023/06/04 11:41:48;;;;;;;2.65;1.27;;;18.80;93.70;;;;;;5096048;28;20063;-84
2023/06/04 11:44:14;;;;;;;2.40;1.60;;;20.20;93.80;;;;;;5095810;28;20039;-84
2023/06/04 11:46:43;;;;;;;3.05;1.30;;;20.30;93.70;;;;;;5114433;28;20028;-84
2023/06/04 11:49:14;;;;;;;3.38;1.67;;;19.80;95.00;;;;;;5108132;28;20039;-84
2023/06/04 11:51:46;;;;;;;3.05;1.35;;;19.80;95.70;;;;;;5096715;28;20051;-84
2023/06/04 11:54:13;;;;;;;6.68;2.17;;;20.10;95.80;;;;;;5095967;28;20088;-84
2023/06/04 11:56:38;;;;;;;4.50;1.90;;;20.70;96.10;;;;;;5095961;28;20020;-84
2023/06/04 11:59:06;;;;;;;6.55;1.90;;;21.00;96.60;;;;;;5095782;28;20177;-84
2023/06/04 12:01:32;;;;;;;1.90;1.70;;;20.10;96.90;;;;;;5096390;28;20031;-84
2023/06/04 12:03:58;;;;;;;6.43;2.08;;;20.10;98.00;;;;;;5095447;28;20165;-85
2023/06/04 12:06:23;;;;;;;2.80;1.85;;;20.10;98.00;;;;;;5095432;28;20063;-84
2023/06/04 12:08:50;;;;;;;6.30;2.40;;;21.20;98.80;;;;;;5095919;28;20024;-84
2023/06/04 12:11:28;;;;;;;5.20;1.83;;;20.20;98.60;;;;;;5095291;28;20031;-84
2023/06/04 12:13:55;;;;;;;5.28;2.28;;;20.20;98.20;;;;;;5095559;28;20027;-84
2023/06/04 12:16:21;;;;;;;5.90;2.40;;;20.20;98.80;;;;;;5095761;28;20024;-84
2023/06/04 12:18:47;;;;;;;9.73;2.50;;;20.50;98.80;;;;;;5094480;28;20028;-84
2023/06/04 12:21:19;;;;;;;3.08;1.92;;;19.50;98.60;;;;;;5095205;28;20043;-84
2023/06/04 12:23:45;;;;;;;4.00;2.35;;;20.30;98.70;;;;;;5095566;28;20035;-84
2023/06/04 12:26:28;;;;;;;2.53;1.98;;;19.90;98.30;;;;;;5094515;28;20032;-84
2023/06/04 12:29:13;;;;;;;6.30;2.95;;;20.60;98.60;;;;;;5095258;28;20020;-84
2023/06/04 12:31:43;;;;;;;8.02;2.25;;;20.30;98.30;;;;;;5095033;28;20043;-84
2023/06/04 12:34:10;;;;;;;3.10;2.20;;;20.30;98.10;;;;;;5093883;28;20031;-84
2023/06/04 12:36:36;;;;;;;6.43;1.90;;;20.40;97.60;;;;;;5094961;28;20031;-84
2023/06/04 12:39:03;;;;;;;4.15;2.45;;;20.30;97.60;;;;;;5095132;28;20024;-84
2023/06/04 12:41:30;;;;;;;6.88;2.45;;;20.30;97.80;;;;;;5094141;28;20406;-84
2023/06/04 12:43:56;;;;;;;9.55;2.60;;;20.20;97.70;;;;;;5094936;28;20030;-84
2023/06/04 12:46:22;;;;;;;4.75;2.25;;;20.30;98.00;;;;;;5094027;28;20103;-84